Time;durP1;ratioP1;P1;durP2;ratioP2;P2;SDS_P1;SDS_P2;PMS_P1;PMS_P2;Temp;Humidity;BMP_temperature;BMP_pressure;BME280_temperature;BME280_humidity;BME280_pressure;Samples;Min_cycle;Max_cycle;Signal;HPM_P1;HPM_P2
2022/06/09 00:00:29;;;;;;;7.10;1.73;;;15.20;99.90;;;;;;5054260;27;48576;-73
2022/06/09 00:02:59;;;;;;;8.93;1.60;;;15.20;99.90;;;;;;5069389;27;38718;-74
2022/06/09 00:05:26;;;;;;;6.68;1.25;;;15.20;99.90;;;;;;5069449;28;39191;-73
2022/06/09 00:07:54;;;;;;;6.18;1.80;;;15.20;99.90;;;;;;5063163;28;37303;-74
2022/06/09 00:10:34;;;;;;;6.97;1.42;;;15.20;99.90;;;;;;5071571;28;39290;-74
2022/06/09 00:13:01;;;;;;;10.10;1.67;;;15.20;99.90;;;;;;5051654;28;38403;-73
2022/06/09 00:15:27;;;;;;;10.35;2.85;;;15.30;99.90;;;;;;5075905;27;38333;-73
2022/06/09 00:17:54;;;;;;;10.38;1.48;;;15.30;99.90;;;;;;5070670;27;38964;-73
2022/06/09 00:20:20;;;;;;;9.75;2.17;;;15.40;99.90;;;;;;5073356;27;40724;-73
2022/06/09 00:22:46;;;;;;;8.00;1.77;;;15.40;99.90;;;;;;5080005;27;38459;-74
2022/06/09 00:25:13;;;;;;;11.48;1.63;;;15.50;99.90;;;;;;5084583;27;38790;-73
2022/06/09 00:27:39;;;;;;;6.18;1.98;;;15.50;99.90;;;;;;5073786;27;38826;-74
2022/06/09 00:30:07;;;;;;;8.35;1.83;;;15.50;99.90;;;;;;5108089;27;41266;-73
2022/06/09 00:32:34;;;;;;;12.32;2.00;;;15.60;99.90;;;;;;5058763;27;38623;-73
2022/06/09 00:35:00;;;;;;;7.80;1.67;;;15.70;99.90;;;;;;5046363;28;40397;-73
2022/06/09 00:37:26;;;;;;;7.00;1.90;;;15.70;99.90;;;;;;5053214;28;38330;-73
2022/06/09 00:39:54;;;;;;;11.40;1.55;;;15.70;99.90;;;;;;5051047;28;40367;-73
2022/06/09 00:42:20;;;;;;;6.85;1.42;;;15.70;99.90;;;;;;5052103;28;39098;-74
2022/06/09 00:44:47;;;;;;;7.22;1.50;;;15.70;99.90;;;;;;5048737;28;38535;-74
2022/06/09 00:47:26;;;;;;;4.43;1.48;;;15.80;99.90;;;;;;5058946;28;37201;-74
2022/06/09 00:50:04;;;;;;;6.50;1.70;;;15.70;99.90;;;;;;5054612;28;38868;-74
2022/06/09 00:52:36;;;;;;;11.00;1.90;;;15.60;99.90;;;;;;5072861;27;47249;-74
2022/06/09 00:55:11;;;;;;;8.90;1.70;;;15.50;99.90;;;;;;5096399;27;38528;-74
2022/06/09 00:58:12;;;;;;;6.82;1.40;;;15.40;99.90;;;;;;5057034;28;39153;-74
2022/06/09 01:01:04;;;;;;;4.13;1.67;;;15.30;99.90;;;;;;5041553;28;47333;-74
2022/06/09 01:03:36;;;;;;;6.10;1.77;;;15.20;99.90;;;;;;5062715;27;47716;-74
2022/06/09 01:06:08;;;;;;;9.52;1.83;;;15.20;99.90;;;;;;5079052;27;38072;-74
2022/06/09 01:08:43;;;;;;;11.88;1.65;;;15.20;99.90;;;;;;5069356;28;35970;-74
2022/06/09 01:11:09;;;;;;;12.88;1.60;;;15.20;99.90;;;;;;5059042;28;39303;-74
2022/06/09 01:13:35;;;;;;;7.25;1.90;;;15.10;99.90;;;;;;5070828;27;39163;-74
2022/06/09 01:16:22;;;;;;;4.70;1.15;;;15.10;99.90;;;;;;5078560;27;38104;-73
2022/06/09 01:19:17;;;;;;;13.05;2.65;;;15.10;99.90;;;;;;5073570;27;37144;-73
2022/06/09 01:21:43;;;;;;;4.97;1.50;;;15.10;99.90;;;;;;5051023;27;48586;-74
2022/06/09 01:24:29;;;;;;;7.63;1.67;;;15.10;99.90;;;;;;5075065;27;38437;-74
2022/06/09 01:27:16;;;;;;;11.38;2.05;;;15.10;99.90;;;;;;5060064;28;37411;-74
2022/06/09 01:30:03;;;;;;;7.68;2.05;;;15.10;99.90;;;;;;5062486;28;47311;-74
2022/06/09 01:32:42;;;;;;;7.22;1.75;;;15.10;99.90;;;;;;5075917;27;48904;-74
2022/06/09 01:35:21;;;;;;;6.75;2.00;;;15.10;99.90;;;;;;5071490;27;40099;-73
2022/06/09 01:37:51;;;;;;;14.80;2.13;;;15.10;99.90;;;;;;5070071;28;38317;-74
2022/06/09 01:40:19;;;;;;;10.40;2.45;;;15.10;99.90;;;;;;5074948;27;37333;-74
2022/06/09 01:42:54;;;;;;;5.57;1.80;;;15.10;99.90;;;;;;5065417;27;39556;-73
2022/06/09 01:45:27;;;;;;;9.32;2.25;;;15.10;99.90;;;;;;5064862;27;39071;-74
2022/06/09 01:48:19;;;;;;;6.18;1.75;;;15.10;99.90;;;;;;5072286;27;38795;-74
2022/06/09 01:50:48;;;;;;;9.80;1.60;;;15.10;99.90;;;;;;5053750;27;48976;-74
2022/06/09 01:53:25;;;;;;;6.93;1.58;;;15.10;99.90;;;;;;5064037;27;39444;-74
2022/06/09 01:56:11;;;;;;;11.35;2.53;;;15.00;99.90;;;;;;5077144;27;38710;-74
2022/06/09 01:59:12;;;;;;;6.47;1.85;;;15.00;99.90;;;;;;5072125;27;48939;-74
2022/06/09 02:01:42;;;;;;;7.45;2.70;;;15.00;99.90;;;;;;5053841;27;46712;-74
2022/06/09 02:04:16;;;;;;;12.80;2.60;;;14.90;99.90;;;;;;5045798;28;39164;-74
2022/06/09 02:06:43;;;;;;;8.45;2.10;;;15.00;99.90;;;;;;5043097;28;39341;-74
2022/06/09 02:09:10;;;;;;;6.18;1.75;;;14.90;99.90;;;;;;5046662;28;37325;-74
2022/06/09 02:11:51;;;;;;;7.05;2.05;;;14.90;99.90;;;;;;5043943;28;38151;-74
2022/06/09 02:14:20;;;;;;;8.43;2.00;;;15.00;99.90;;;;;;5044252;28;38525;-74
2022/06/09 02:16:46;;;;;;;5.90;2.15;;;14.90;99.90;;;;;;5045034;28;40527;-73
2022/06/09 02:19:13;;;;;;;12.15;2.47;;;15.00;99.90;;;;;;5053774;27;39071;-74
2022/06/09 02:21:40;;;;;;;8.70;1.95;;;14.90;99.90;;;;;;5057654;28;37029;-73
2022/06/09 02:24:07;;;;;;;8.63;2.20;;;14.90;99.90;;;;;;5056608;27;39532;-74
2022/06/09 02:26:33;;;;;;;12.05;2.20;;;14.90;99.90;;;;;;5088179;27;38929;-74
2022/06/09 02:29:00;;;;;;;12.10;3.03;;;15.00;99.90;;;;;;5054701;28;38806;-73
2022/06/09 02:31:27;;;;;;;9.20;1.98;;;15.00;99.90;;;;;;5052171;28;38308;-73
2022/06/09 02:33:54;;;;;;;6.30;2.15;;;14.90;99.90;;;;;;5057712;28;38501;-74
2022/06/09 02:36:20;;;;;;;7.93;1.27;;;14.90;99.90;;;;;;5067169;27;40219;-73
2022/06/09 02:38:47;;;;;;;5.65;1.20;;;14.90;99.90;;;;;;5055096;28;38231;-73
2022/06/09 02:41:13;;;;;;;8.25;1.85;;;14.80;99.90;;;;;;5054056;28;37960;-73
2022/06/09 02:43:41;;;;;;;8.93;1.67;;;14.80;99.90;;;;;;5052983;28;38666;-73
2022/06/09 02:46:07;;;;;;;8.20;1.42;;;14.80;99.90;;;;;;5051737;28;40313;-73
2022/06/09 02:48:34;;;;;;;4.63;1.23;;;14.70;99.90;;;;;;5062383;28;40918;-74
2022/06/09 02:51:21;;;;;;;4.53;1.10;;;14.60;99.90;;;;;;5056954;28;39016;-74
2022/06/09 02:53:48;;;;;;;3.45;0.90;;;14.60;99.90;;;;;;5066209;27;47358;-74
2022/06/09 02:56:14;;;;;;;3.28;0.80;;;14.60;99.90;;;;;;5060530;28;39344;-73
2022/06/09 02:58:41;;;;;;;5.53;1.23;;;14.60;99.90;;;;;;5058955;28;39148;-73
2022/06/09 03:01:07;;;;;;;5.50;0.80;;;14.50;99.90;;;;;;5054143;28;38973;-74
2022/06/09 03:03:34;;;;;;;1.70;0.55;;;14.40;99.90;;;;;;5054821;27;39690;-74
2022/06/09 03:06:00;;;;;;;1.45;0.43;;;14.40;99.90;;;;;;5056655;28;39081;-74
2022/06/09 03:08:26;;;;;;;3.40;1.00;;;14.40;99.90;;;;;;5064775;27;38005;-74
2022/06/09 03:10:52;;;;;;;3.92;0.90;;;14.40;99.90;;;;;;5057167;28;36663;-74
2022/06/09 03:13:18;;;;;;;3.80;0.88;;;14.40;99.90;;;;;;5064020;27;38806;-73
2022/06/09 03:15:47;;;;;;;3.22;0.65;;;14.40;99.90;;;;;;5063185;28;39266;-74
2022/06/09 03:18:15;;;;;;;3.13;0.55;;;14.30;99.90;;;;;;5056101;28;39057;-74
2022/06/09 03:20:41;;;;;;;5.47;1.25;;;14.30;99.90;;;;;;5061794;27;37893;-73
2022/06/09 03:23:07;;;;;;;6.93;1.00;;;14.40;99.90;;;;;;5059805;27;39608;-73
2022/06/09 03:25:33;;;;;;;5.07;0.80;;;14.40;99.90;;;;;;5054000;28;39011;-74
2022/06/09 03:28:00;;;;;;;2.33;0.65;;;14.40;99.90;;;;;;5053959;27;38109;-73
2022/06/09 03:30:26;;;;;;;2.75;0.75;;;14.40;99.90;;;;;;5052170;28;36288;-74
2022/06/09 03:32:53;;;;;;;3.15;0.80;;;14.40;99.90;;;;;;5054516;28;39997;-74
2022/06/09 03:35:19;;;;;;;3.22;0.98;;;14.40;99.90;;;;;;5054579;28;39812;-74
2022/06/09 03:37:45;;;;;;;2.20;0.60;;;14.40;99.90;;;;;;5049029;28;37780;-73
2022/06/09 03:40:17;;;;;;;5.32;0.80;;;14.40;99.90;;;;;;5044779;28;37934;-73
2022/06/09 03:42:43;;;;;;;2.92;0.82;;;14.50;99.90;;;;;;5072919;27;39412;-73
2022/06/09 03:45:10;;;;;;;3.47;0.70;;;14.50;99.90;;;;;;5055225;28;38328;-74
2022/06/09 03:47:37;;;;;;;5.07;0.57;;;14.60;99.90;;;;;;5057775;27;38069;-74
2022/06/09 03:50:06;;;;;;;3.88;0.93;;;14.60;99.90;;;;;;5054751;28;38104;-73
2022/06/09 03:52:32;;;;;;;4.43;0.95;;;14.60;99.90;;;;;;5053616;28;38202;-74
2022/06/09 03:54:58;;;;;;;2.83;0.90;;;14.70;99.90;;;;;;5059580;28;38666;-74
2022/06/09 03:57:24;;;;;;;3.97;1.00;;;14.70;99.90;;;;;;5062795;27;38718;-74
2022/06/09 03:59:50;;;;;;;6.72;2.00;;;14.70;99.90;;;;;;5052892;27;38739;-74
2022/06/09 04:02:16;;;;;;;12.10;1.50;;;14.70;99.90;;;;;;5051806;27;38363;-74
2022/06/09 04:04:43;;;;;;;2.47;1.10;;;14.70;99.90;;;;;;5054892;28;38492;-74
2022/06/09 04:07:11;;;;;;;5.47;1.25;;;14.70;99.90;;;;;;5052078;28;38958;-74
2022/06/09 04:09:37;;;;;;;6.28;1.65;;;14.60;99.90;;;;;;5057326;28;37382;-74
2022/06/09 04:12:04;;;;;;;4.97;1.10;;;14.60;99.90;;;;;;5048022;27;40701;-74
2022/06/09 04:14:30;;;;;;;6.53;1.52;;;14.50;99.90;;;;;;5047164;28;40626;-74
2022/06/09 04:16:57;;;;;;;2.72;1.00;;;14.40;99.90;;;;;;5055511;28;38697;-74
2022/06/09 04:19:23;;;;;;;5.35;1.10;;;14.30;99.90;;;;;;5052483;27;39276;-75
2022/06/09 04:21:50;;;;;;;3.10;1.17;;;14.20;99.90;;;;;;5058374;28;38853;-74
2022/06/09 04:24:17;;;;;;;4.82;1.13;;;14.10;99.90;;;;;;5071020;27;39965;-74
2022/06/09 04:26:43;;;;;;;2.45;0.77;;;14.10;99.90;;;;;;5058144;27;38269;-75
2022/06/09 04:29:12;;;;;;;3.55;1.35;;;14.00;99.90;;;;;;5099212;27;36193;-74
2022/06/09 04:31:38;;;;;;;1.20;0.90;;;13.90;99.90;;;;;;5051603;28;38676;-74
2022/06/09 04:34:05;;;;;;;2.47;1.05;;;13.90;99.90;;;;;;5052758;28;39089;-74
2022/06/09 04:36:31;;;;;;;2.72;1.25;;;13.80;99.90;;;;;;5069849;27;38137;-74
2022/06/09 04:38:58;;;;;;;1.60;1.00;;;13.80;99.90;;;;;;5073059;27;37759;-74
2022/06/09 04:41:24;;;;;;;5.63;1.38;;;13.70;99.90;;;;;;5058682;28;38790;-74
2022/06/09 04:43:50;;;;;;;3.42;1.52;;;13.70;99.90;;;;;;5056474;28;39173;-74
2022/06/09 04:46:22;;;;;;;2.42;0.80;;;13.60;99.90;;;;;;5055010;28;40078;-74
2022/06/09 04:48:49;;;;;;;1.83;1.10;;;13.50;99.90;;;;;;5053114;28;20546;-74
2022/06/09 04:51:18;;;;;;;4.68;0.90;;;13.50;99.90;;;;;;5076295;27;41261;-74
2022/06/09 04:53:45;;;;;;;0.57;0.57;;;13.50;99.90;;;;;;5076130;27;39085;-74
2022/06/09 04:56:14;;;;;;;2.30;1.00;;;13.50;99.90;;;;;;5071009;27;38884;-74
2022/06/09 04:58:41;;;;;;;2.65;0.77;;;13.50;99.90;;;;;;5081112;27;37116;-74
2022/06/09 05:01:18;;;;;;;4.40;0.90;;;13.50;99.90;;;;;;5070989;27;40323;-74
2022/06/09 05:03:46;;;;;;;1.58;0.88;;;13.50;99.90;;;;;;5052796;28;39378;-74
2022/06/09 05:06:12;;;;;;;1.33;0.98;;;13.50;99.90;;;;;;5086356;27;40038;-74
2022/06/09 05:08:40;;;;;;;0.93;0.77;;;13.60;99.90;;;;;;5072014;27;37276;-74
2022/06/09 05:11:06;;;;;;;1.83;1.05;;;13.50;99.90;;;;;;5088240;27;39419;-74
2022/06/09 05:13:32;;;;;;;2.28;1.30;;;13.50;99.90;;;;;;5059054;27;39951;-74
2022/06/09 05:15:59;;;;;;;2.53;1.27;;;13.50;99.90;;;;;;5068617;28;37916;-74
2022/06/09 05:18:27;;;;;;;2.30;1.10;;;13.60;99.90;;;;;;5072728;27;38667;-74
2022/06/09 05:20:56;;;;;;;2.83;1.70;;;13.60;99.90;;;;;;5072056;27;40051;-74
2022/06/09 05:23:22;;;;;;;4.90;2.10;;;13.60;99.90;;;;;;5071424;27;40022;-74
2022/06/09 05:25:49;;;;;;;2.80;1.70;;;13.70;99.90;;;;;;5064607;28;38701;-73
2022/06/09 05:28:18;;;;;;;4.72;1.98;;;13.70;99.90;;;;;;5061687;28;36956;-74
2022/06/09 05:30:45;;;;;;;4.18;3.00;;;13.70;99.90;;;;;;5074052;28;39774;-74
2022/06/09 05:33:12;;;;;;;6.63;2.92;;;13.80;99.90;;;;;;5082582;27;39091;-74
2022/06/09 05:35:39;;;;;;;6.22;3.15;;;13.80;99.90;;;;;;5060658;28;38918;-74
2022/06/09 05:46:22;;;;;;;7.80;4.95;;;13.90;99.90;;;;;;5077005;27;38970;-74
2022/06/09 05:48:48;;;;;;;9.02;4.22;;;14.00;99.90;;;;;;5057821;27;37124;-73
2022/06/09 05:51:16;;;;;;;10.32;4.95;;;14.00;99.90;;;;;;5075392;27;39502;-73
2022/06/09 05:53:43;;;;;;;7.63;4.10;;;14.10;99.90;;;;;;5090564;27;37266;-73
2022/06/09 05:56:10;;;;;;;8.20;3.00;;;14.20;99.90;;;;;;5050383;28;36340;-73
2022/06/09 05:58:36;;;;;;;7.35;3.30;;;14.20;99.90;;;;;;5063749;27;38573;-73
2022/06/09 06:01:05;;;;;;;7.43;2.70;;;14.20;99.90;;;;;;5071059;27;41246;-73
2022/06/09 06:03:32;;;;;;;3.72;2.38;;;14.30;99.90;;;;;;5074077;27;37622;-75
2022/06/09 06:08:42;;;;;;;6.65;2.83;;;14.40;99.90;;;;;;5076952;27;48918;-73
2022/06/09 06:11:08;;;;;;;7.47;2.25;;;14.60;99.90;;;;;;5072447;27;39007;-73
2022/06/09 06:13:35;;;;;;;5.28;2.00;;;14.60;99.90;;;;;;5074280;27;39104;-72
2022/06/09 06:16:01;;;;;;;4.97;2.17;;;14.70;99.90;;;;;;5059083;27;37230;-74
2022/06/09 06:18:28;;;;;;;4.10;1.88;;;14.60;99.90;;;;;;5055084;27;48654;-73
2022/06/09 06:20:58;;;;;;;4.35;2.00;;;14.60;99.90;;;;;;5069150;28;39141;-73
2022/06/09 06:23:25;;;;;;;5.25;2.00;;;14.60;99.90;;;;;;5073722;27;38842;-73
2022/06/09 06:25:53;;;;;;;5.82;2.22;;;14.70;99.90;;;;;;5073414;27;37596;-74
2022/06/09 06:28:20;;;;;;;2.78;1.95;;;14.80;99.90;;;;;;5079407;27;37888;-73
2022/06/09 06:30:47;;;;;;;6.13;2.53;;;14.90;99.90;;;;;;5076449;27;39899;-73
2022/06/09 06:33:13;;;;;;;3.78;2.50;;;14.90;99.90;;;;;;5078166;27;38241;-73
2022/06/09 06:35:39;;;;;;;6.20;2.85;;;14.90;99.90;;;;;;5076011;27;39033;-73
2022/06/09 06:38:05;;;;;;;4.55;2.50;;;14.90;99.90;;;;;;5064528;27;37524;-73
2022/06/09 06:40:31;;;;;;;8.93;3.05;;;15.00;99.90;;;;;;5102291;27;39511;-73
2022/06/09 06:42:58;;;;;;;7.13;3.17;;;15.10;99.90;;;;;;5087987;28;36100;-74
2022/06/09 06:45:25;;;;;;;5.60;3.47;;;15.00;99.90;;;;;;5073635;27;36786;-73
2022/06/09 06:47:51;;;;;;;5.10;2.75;;;15.20;99.90;;;;;;5069969;28;38907;-73
2022/06/09 06:50:18;;;;;;;4.18;2.47;;;15.40;99.90;;;;;;5071857;27;40361;-73
2022/06/09 06:52:44;;;;;;;4.45;2.75;;;15.60;99.90;;;;;;5077080;27;43064;-73
2022/06/09 06:55:14;;;;;;;6.35;2.95;;;15.60;99.90;;;;;;5078126;28;38458;-73
2022/06/09 06:57:40;;;;;;;5.05;2.95;;;15.70;99.90;;;;;;5080127;27;38576;-73
2022/06/09 07:00:09;;;;;;;8.80;3.35;;;15.90;99.90;;;;;;5072339;27;39741;-73
2022/06/09 07:02:35;;;;;;;7.05;2.70;;;16.10;99.90;;;;;;5059782;27;38473;-72
2022/06/09 07:05:02;;;;;;;7.30;3.58;;;16.30;99.90;;;;;;5060511;28;39382;-73
2022/06/09 07:07:30;;;;;;;6.57;3.10;;;16.40;99.90;;;;;;5071145;27;36696;-73
2022/06/09 07:09:56;;;;;;;6.90;3.20;;;16.40;99.90;;;;;;5062890;28;39726;-73
2022/06/09 07:12:22;;;;;;;8.55;3.08;;;16.50;99.90;;;;;;5067933;28;38429;-73
2022/06/09 07:14:48;;;;;;;4.95;2.90;;;16.20;99.90;;;;;;5062116;28;39760;-73
2022/06/09 07:17:14;;;;;;;6.53;2.85;;;16.30;99.90;;;;;;5063579;27;37992;-72
2022/06/09 07:19:40;;;;;;;9.23;2.60;;;16.40;99.90;;;;;;5064861;28;40458;-73
2022/06/09 07:22:06;;;;;;;7.43;2.25;;;16.40;99.90;;;;;;5067443;28;38245;-73
2022/06/09 07:24:33;;;;;;;7.75;2.38;;;16.40;99.90;;;;;;5064942;28;39010;-73
2022/06/09 07:26:59;;;;;;;8.73;2.78;;;16.40;99.90;;;;;;5061904;28;37774;-73
2022/06/09 07:29:26;;;;;;;6.95;2.53;;;16.80;99.90;;;;;;5064258;27;39812;-73
2022/06/09 07:31:53;;;;;;;7.75;2.28;;;17.30;99.90;;;;;;5060431;28;38729;-74
2022/06/09 07:34:20;;;;;;;8.07;1.60;;;17.90;99.90;;;;;;5057373;28;39040;-73
2022/06/09 07:36:47;;;;;;;6.63;1.40;;;18.10;99.90;;;;;;5062161;28;38265;-74
2022/06/09 07:39:13;;;;;;;5.13;1.33;;;18.30;99.90;;;;;;5063904;27;39075;-73
2022/06/09 07:41:39;;;;;;;5.20;1.40;;;18.40;99.90;;;;;;5063951;28;38631;-73
2022/06/09 07:44:07;;;;;;;6.55;1.38;;;18.40;99.90;;;;;;5063388;28;38875;-73
2022/06/09 07:46:34;;;;;;;5.70;1.27;;;18.70;99.90;;;;;;5064727;28;38224;-74
2022/06/09 07:49:00;;;;;;;8.30;1.95;;;18.70;99.90;;;;;;5061892;27;40270;-74
2022/06/09 07:51:29;;;;;;;7.43;1.35;;;18.60;99.90;;;;;;5087197;27;40537;-73
2022/06/09 07:53:56;;;;;;;5.18;1.27;;;18.60;99.90;;;;;;5082907;27;38525;-73
2022/06/09 07:56:23;;;;;;;6.90;1.90;;;18.50;99.90;;;;;;5087662;27;37397;-73
2022/06/09 07:58:49;;;;;;;8.70;1.58;;;18.30;99.90;;;;;;5080698;27;38681;-74
2022/06/09 08:01:18;;;;;;;6.72;1.70;;;18.10;99.90;;;;;;5083258;27;37330;-75
2022/06/09 08:03:46;;;;;;;7.45;1.40;;;17.80;99.90;;;;;;5082216;27;37116;-75
2022/06/09 08:06:14;;;;;;;6.32;1.25;;;17.60;99.90;;;;;;5086907;27;37280;-74
2022/06/09 08:08:40;;;;;;;6.60;1.30;;;18.00;99.90;;;;;;5084972;27;39583;-74
2022/06/09 08:11:08;;;;;;;8.98;1.27;;;18.40;99.90;;;;;;5086473;27;38468;-74
2022/06/09 08:13:36;;;;;;;8.40;1.40;;;18.70;99.90;;;;;;5084371;27;38844;-73
2022/06/09 08:16:03;;;;;;;6.18;1.40;;;18.90;99.90;;;;;;5083751;27;38243;-74
2022/06/09 08:18:30;;;;;;;10.75;1.58;;;19.10;99.90;;;;;;5084069;27;39065;-74
2022/06/09 08:20:57;;;;;;;6.07;1.45;;;19.00;99.90;;;;;;5076117;27;39177;-73
2022/06/09 08:23:26;;;;;;;10.60;1.45;;;19.20;99.90;;;;;;5088293;27;39232;-75
2022/06/09 08:25:54;;;;;;;6.78;1.67;;;19.50;99.90;;;;;;5085882;27;37798;-74
2022/06/09 08:28:21;;;;;;;7.15;1.52;;;19.80;99.90;;;;;;5082865;27;39629;-74
2022/06/09 08:30:54;;;;;;;6.60;1.67;;;20.00;99.90;;;;;;5074257;27;38672;-74
2022/06/09 08:33:23;;;;;;;9.65;2.45;;;19.50;99.90;;;;;;5098530;27;38776;-76
2022/06/09 08:35:50;;;;;;;5.55;1.67;;;19.10;99.90;;;;;;5066232;28;38225;-74
2022/06/09 08:38:17;;;;;;;9.10;1.80;;;19.20;99.90;;;;;;5077569;27;42234;-74
2022/06/09 08:41:21;;;;;;;7.22;1.58;;;19.00;99.90;;;;;;5078038;28;39230;-74
2022/06/09 08:44:19;;;;;;;11.43;3.22;;;19.60;99.90;;;;;;5049821;27;44971;-74
2022/06/09 08:47:11;;;;;;;14.77;2.47;;;19.60;99.90;;;;;;5076662;28;48682;-74
2022/06/09 08:50:04;;;;;;;7.28;1.52;;;19.40;99.90;;;;;;5075982;27;47065;-74
2022/06/09 08:52:38;;;;;;;8.07;1.58;;;19.40;99.90;;;;;;5075023;28;47200;-74
2022/06/09 08:55:31;;;;;;;15.23;2.40;;;19.40;99.90;;;;;;5080179;27;38811;-74
2022/06/09 08:58:20;;;;;;;6.00;1.40;;;19.20;99.90;;;;;;5067504;27;38657;-74
2022/06/09 09:00:50;;;;;;;4.07;1.27;;;19.20;99.90;;;;;;5064766;27;47096;-74
2022/06/09 09:03:28;;;;;;;5.70;1.40;;;19.60;99.90;;;;;;5105496;27;39206;-74
2022/06/09 09:05:58;;;;;;;10.85;2.20;;;19.50;99.90;;;;;;5076243;27;37794;-74
2022/06/09 09:08:25;;;;;;;6.70;1.60;;;19.10;99.90;;;;;;5072250;27;37498;-74
2022/06/09 09:11:07;;;;;;;6.63;1.40;;;18.50;99.90;;;;;;5064856;28;40036;-74
2022/06/09 09:14:00;;;;;;;5.00;1.52;;;18.50;99.90;;;;;;5080161;27;47264;-74
2022/06/09 09:16:51;;;;;;;4.90;1.23;;;18.80;99.90;;;;;;5109830;27;39737;-74
2022/06/09 09:19:43;;;;;;;7.03;1.70;;;19.40;99.90;;;;;;5067700;28;37410;-74
2022/06/09 09:22:34;;;;;;;5.03;1.45;;;19.50;99.90;;;;;;5074595;27;40319;-74
2022/06/09 09:25:07;;;;;;;8.43;1.92;;;19.20;99.90;;;;;;5076525;27;39945;-75
2022/06/09 09:27:36;;;;;;;6.13;1.73;;;19.00;99.90;;;;;;5082426;27;48733;-74
2022/06/09 09:30:23;;;;;;;11.10;1.95;;;18.80;99.90;;;;;;5093230;27;37981;-74
2022/06/09 09:32:53;;;;;;;7.90;1.73;;;18.90;99.90;;;;;;5114060;27;39472;-74
2022/06/09 09:35:33;;;;;;;4.97;1.40;;;19.60;99.90;;;;;;5069501;27;38986;-73
2022/06/09 09:38:01;;;;;;;5.85;1.50;;;19.40;99.90;;;;;;5072113;27;40142;-74
2022/06/09 09:40:39;;;;;;;8.88;1.70;;;19.40;99.90;;;;;;5096125;27;36510;-73
2022/06/09 09:43:12;;;;;;;8.75;1.40;;;19.40;99.90;;;;;;5071332;27;40667;-73
2022/06/09 09:45:48;;;;;;;8.32;1.60;;;19.70;99.90;;;;;;5074256;27;39088;-73
2022/06/09 09:48:17;;;;;;;5.55;1.45;;;20.30;99.90;;;;;;5076426;27;39334;-74
2022/06/09 09:51:10;;;;;;;8.60;1.70;;;20.70;99.90;;;;;;5080099;27;35883;-73
2022/06/09 09:53:47;;;;;;;8.65;1.67;;;21.10;99.90;;;;;;5075676;28;47232;-74
2022/06/09 09:56:16;;;;;;;8.07;1.30;;;20.90;99.90;;;;;;5062580;27;38606;-74
2022/06/09 09:58:48;;;;;;;5.63;1.58;;;20.40;99.90;;;;;;5053924;28;38781;-74
2022/06/09 10:01:14;;;;;;;;;;;20.60;99.90;;;;;;5060874;28;37097;-74
2022/06/09 10:09:43;;;;;;;7.88;1.30;;;21.70;99.90;;;;;;5070388;27;49567;-74
2022/06/09 10:12:18;;;;;;;9.15;1.77;;;21.70;99.90;;;;;;5061100;28;37565;-74
2022/06/09 10:14:50;;;;;;;7.68;1.60;;;21.40;99.90;;;;;;5051966;28;39378;-74
2022/06/09 10:17:35;;;;;;;6.57;1.55;;;21.50;99.90;;;;;;5058402;27;38636;-74
2022/06/09 10:20:17;;;;;;;6.75;1.75;;;21.50;99.90;;;;;;5075779;27;39534;-74
2022/06/09 10:23:17;;;;;;;5.15;1.40;;;21.60;99.90;;;;;;5069756;27;46585;-74
2022/06/09 10:25:59;;;;;;;8.93;1.92;;;21.60;99.90;;;;;;5030007;28;48519;-73
2022/06/09 10:28:35;;;;;;;14.25;1.58;;;21.00;99.90;;;;;;5055512;28;38791;-73
2022/06/09 10:31:11;;;;;;;7.03;1.80;;;21.20;99.90;;;;;;5071975;28;38773;-73
2022/06/09 10:33:54;;;;;;;6.50;1.35;;;21.50;99.90;;;;;;5071377;28;38956;-73
2022/06/09 10:36:50;;;;;;;9.13;1.70;;;21.70;99.90;;;;;;5074240;27;39599;-74
2022/06/09 10:39:27;;;;;;;9.63;1.67;;;22.30;99.90;;;;;;5099798;27;38990;-73
2022/06/09 10:42:00;;;;;;;6.35;1.60;;;22.80;99.90;;;;;;5062238;28;38596;-74
2022/06/09 10:44:44;;;;;;;6.97;1.77;;;23.00;99.90;;;;;;5053940;27;37851;-73
2022/06/09 10:56:15;;;;;;;6.93;1.50;;;22.90;99.90;;;;;;5077285;27;37979;-73
2022/06/09 10:59:11;;;;;;;8.77;1.77;;;22.40;99.90;;;;;;5073573;27;38890;-73
2022/06/09 11:01:39;;;;;;;7.47;1.52;;;22.20;99.90;;;;;;5059548;27;48343;-73
2022/06/09 11:04:13;;;;;;;6.57;1.20;;;22.40;99.90;;;;;;5079354;27;37656;-74
2022/06/09 11:06:57;;;;;;;10.15;1.65;;;22.40;99.90;;;;;;5078442;27;38859;-73
2022/06/09 11:09:50;;;;;;;7.18;1.55;;;22.30;99.90;;;;;;5084287;27;39055;-74
2022/06/09 11:12:34;;;;;;;10.05;2.22;;;22.20;99.90;;;;;;5076609;27;37979;-73
2022/06/09 11:15:18;;;;;;;8.00;1.90;;;22.00;99.90;;;;;;5098401;27;36874;-73
2022/06/09 11:18:15;;;;;;;6.43;1.75;;;22.20;99.90;;;;;;5072950;27;48556;-75
2022/06/09 11:21:24;;;;;;;7.30;2.13;;;22.30;99.90;;;;;;5071803;27;47190;-74
2022/06/09 11:24:14;;;;;;;7.50;1.50;;;22.50;99.90;;;;;;5038000;27;47152;-75
2022/06/09 11:26:53;;;;;;;10.48;1.88;;;21.80;99.90;;;;;;5075323;27;48683;-74
2022/06/09 11:29:34;;;;;;;9.43;1.92;;;22.10;99.90;;;;;;5112102;27;38109;-76
2022/06/09 11:32:09;;;;;;;9.43;1.63;;;22.50;99.90;;;;;;5096421;27;37855;-74
2022/06/09 11:35:00;;;;;;;6.90;1.98;;;22.40;99.90;;;;;;5078379;28;48074;-75
2022/06/09 11:37:59;;;;;;;8.93;1.70;;;22.50;99.90;;;;;;5080059;27;39533;-75
2022/06/09 11:40:40;;;;;;;8.30;1.98;;;22.60;99.90;;;;;;5072606;27;37338;-74
2022/06/09 11:43:31;;;;;;;10.88;2.22;;;22.40;99.90;;;;;;5078561;27;38830;-74
2022/06/09 11:46:09;;;;;;;10.52;2.08;;;22.30;99.90;;;;;;5081583;28;39358;-74
2022/06/09 11:48:46;;;;;;;8.43;2.00;;;22.40;99.90;;;;;;5067047;28;47827;-75
2022/06/09 11:51:17;;;;;;;8.43;1.65;;;22.60;99.90;;;;;;5054749;28;36197;-74
2022/06/09 11:53:51;;;;;;;8.23;1.80;;;23.00;99.90;;;;;;5056113;28;41591;-74
2022/06/09 11:56:45;;;;;;;6.60;1.70;;;23.10;99.90;;;;;;5064670;27;39329;-74
2022/06/09 11:59:16;;;;;;;7.15;1.50;;;23.10;99.90;;;;;;5072298;27;38199;-75
2022/06/09 12:01:54;;;;;;;7.47;1.73;;;22.90;99.90;;;;;;5078838;27;39016;-74
2022/06/09 12:05:08;;;;;;;9.43;1.90;;;22.80;99.90;;;;;;5064586;27;38649;-74
2022/06/09 12:08:07;;;;;;;10.63;2.22;;;22.80;99.90;;;;;;5093190;27;48972;-74
2022/06/09 12:10:58;;;;;;;5.53;2.03;;;22.90;99.90;;;;;;5082526;27;48609;-74
2022/06/09 12:13:37;;;;;;;5.65;1.50;;;22.80;99.90;;;;;;5078533;27;37989;-74
2022/06/09 12:16:22;;;;;;;8.57;2.03;;;23.00;99.90;;;;;;5083999;27;39746;-75
2022/06/09 12:18:59;;;;;;;11.68;2.00;;;23.00;99.90;;;;;;5067654;28;39245;-74
2022/06/09 12:21:33;;;;;;;7.43;1.65;;;23.30;99.90;;;;;;5068475;28;38877;-74
2022/06/09 12:24:14;;;;;;;8.02;1.40;;;23.10;99.90;;;;;;5076439;27;36138;-75
2022/06/09 12:26:40;;;;;;;5.15;1.35;;;22.80;99.90;;;;;;5074156;28;47143;-77
2022/06/09 12:29:39;;;;;;;8.48;1.77;;;22.90;99.90;;;;;;5068813;27;39372;-76
2022/06/09 12:32:39;;;;;;;6.50;1.35;;;23.10;99.90;;;;;;5069072;27;38749;-77
2022/06/09 12:35:19;;;;;;;7.85;1.60;;;23.00;99.90;;;;;;5102559;27;38146;-77
2022/06/09 12:37:55;;;;;;;9.15;2.20;;;23.70;99.90;;;;;;5070255;27;39706;-76
2022/06/09 12:40:28;;;;;;;7.35;1.90;;;23.60;99.90;;;;;;5056736;28;40113;-77
2022/06/09 12:43:00;;;;;;;7.30;1.80;;;23.40;99.90;;;;;;5053839;28;39618;-76
2022/06/09 12:45:35;;;;;;;;;;;23.20;99.90;;;;;;5060710;28;36831;-77
2022/06/09 12:48:14;;;;;;;8.02;1.65;;;23.20;99.90;;;;;;5067688;27;38179;-77
2022/06/09 12:50:50;;;;;;;6.40;1.80;;;23.00;99.90;;;;;;5083288;27;48756;-77
2022/06/09 12:53:24;;;;;;;6.35;1.65;;;23.10;99.90;;;;;;5081520;27;37056;-77
2022/06/09 12:55:59;;;;;;;9.95;1.77;;;23.10;99.90;;;;;;5077264;28;37006;-77
2022/06/09 12:58:46;;;;;;;8.63;1.90;;;22.80;99.90;;;;;;5064747;27;37451;-77
2022/06/09 13:01:17;;;;;;;8.38;2.05;;;22.80;99.90;;;;;;5063208;27;39305;-78
2022/06/09 13:03:49;;;;;;;6.68;1.63;;;22.80;99.90;;;;;;5062629;27;38708;-78
2022/06/09 13:06:21;;;;;;;8.13;1.75;;;22.70;99.90;;;;;;5077824;27;37354;-77
2022/06/09 13:08:48;;;;;;;;;;;22.70;99.90;;;;;;5092312;27;37928;-77
2022/06/09 13:14:25;;;;;;;7.20;1.90;;;22.50;99.90;;;;;;5078089;27;39559;-77
2022/06/09 13:16:55;;;;;;;7.72;1.42;;;22.60;99.90;;;;;;5081771;27;38264;-81
2022/06/09 13:19:25;;;;;;;8.20;1.52;;;22.80;99.90;;;;;;5080502;27;40154;-77
2022/06/09 13:21:52;;;;;;;9.65;1.50;;;22.80;99.90;;;;;;5072542;27;38296;-77
2022/06/09 13:24:32;;;;;;;8.43;1.60;;;22.50;99.90;;;;;;5057521;27;38886;-78
2022/06/09 13:27:00;;;;;;;5.65;1.55;;;22.50;99.90;;;;;;5057272;28;37577;-77
2022/06/09 13:29:34;;;;;;;8.60;2.05;;;22.90;99.90;;;;;;5058071;28;42076;-77
2022/06/09 13:32:29;;;;;;;7.18;1.70;;;23.00;99.90;;;;;;5052563;28;38084;-77
2022/06/09 13:35:00;;;;;;;6.50;1.63;;;23.30;99.90;;;;;;5078879;28;47393;-77
2022/06/09 13:37:42;;;;;;;10.05;2.13;;;23.20;99.90;;;;;;5077934;27;37330;-78
2022/06/09 13:40:09;;;;;;;10.35;2.10;;;22.90;99.90;;;;;;5058027;27;38678;-76
2022/06/09 13:43:04;;;;;;;8.55;1.65;;;23.00;99.90;;;;;;5068935;27;39163;-77